Time;durP1;ratioP1;P1;durP2;ratioP2;P2;SDS_P1;SDS_P2;PMS_P1;PMS_P2;Temp;Humidity;BMP_temperature;BMP_pressure;BME280_temperature;BME280_humidity;BME280_pressure;Samples;Min_cycle;Max_cycle;Signal;HPM_P1;HPM_P2
2021/12/06 00:02:20;;;;;;;;;;;;;;;;;;1016283;23;1963;-21
2021/12/06 00:02:51;;;;;;;;;;;;;;;;;;1016075;29;1031;-20
2021/12/06 00:03:25;;;;;;;;;;;;;;;;;;1015611;29;1950;-21
2021/12/06 00:03:58;;;;;;;;;;;;;;;;;;1016288;29;997;-21
2021/12/06 00:04:31;;;;;;;;;;;;;;;;;;1015221;29;890;-21
2021/12/06 00:05:02;;;;;;;;;;;;;;;;;;1013253;29;1486;-21
2021/12/06 00:05:32;;;;;;;;;;;;;;;;;;1013348;29;1154;-21
2021/12/06 00:06:03;;;;;;;;;;;;;;;;;;1013376;29;949;-21
2021/12/06 00:06:34;;;;;;;;;;;;;;;;;;1013279;29;1032;-20
2021/12/06 00:07:10;;;;;;;;;;;;;;;;;;1013676;29;871;-21
2021/12/06 00:07:41;;;;;;;;;;;;;;;;;;1013059;29;937;-21
2021/12/06 00:08:11;;;;;;;;;;;;;;;;;;1013392;29;925;-21
2021/12/06 00:08:42;;;;;;;;;;;;;;;;;;1013404;29;1672;-21
2021/12/06 00:09:15;;;;;;;;;;;;;;;;;;1013141;29;863;-20
2021/12/06 00:09:45;;;;;;;;;;;;;;;;;;1013359;29;874;-21
2021/12/06 00:10:16;;;;;;;;;;;;;;;;;;1013264;29;1007;-21
2021/12/06 00:10:50;;;;;;;;;;;;;;;;;;1013439;29;885;-21
2021/12/06 00:11:20;;;;;;;;;;;;;;;;;;1013527;29;933;-21
2021/12/06 00:11:57;;;;;;;;;;;;;;;;;;1013193;29;899;-21
2021/12/06 00:12:27;;;;;;;;;;;;;;;;;;1013381;29;894;-21
2021/12/06 00:12:57;;;;;;;;;;;;;;;;;;1013873;29;1409;-21
2021/12/06 00:13:28;;;;;;;;;;;;;;;;;;1015038;29;1179;-20
2021/12/06 00:13:58;;;;;;;;;;;;;;;;;;1015108;29;966;-20
2021/12/06 00:14:30;;;;;;;;;;;;;;;;;;1017419;29;865;-22
2021/12/06 00:15:00;;;;;;;;;;;;;;;;;;1015154;29;1212;-21
2021/12/06 00:15:33;;;;;;;;;;;;;;;;;;1013362;29;943;-22
2021/12/06 00:16:07;;;;;;;;;;;;;;;;;;1013446;29;957;-21
2021/12/06 00:16:38;;;;;;;;;;;;;;;;;;1013201;29;961;-21
2021/12/06 00:17:10;;;;;;;;;;;;;;;;;;1013533;29;883;-20
2021/12/06 00:17:40;;;;;;;;;;;;;;;;;;1013444;29;969;-21
2021/12/06 00:18:10;;;;;;;;;;;;;;;;;;1013123;29;851;-21
2021/12/06 00:18:41;;;;;;;;;;;;;;;;;;1013335;29;1171;-21
2021/12/06 00:19:11;;;;;;;;;;;;;;;;;;1013101;29;994;-21
2021/12/06 00:19:42;;;;;;;;;;;;;;;;;;1013258;29;957;-21
2021/12/06 00:20:13;;;;;;;;;;;;;;;;;;1008937;29;1059;-21
2021/12/06 00:20:44;;;;;;;;;;;;;;;;;;1008937;29;1089;-21
2021/12/06 00:21:15;;;;;;;;;;;;;;;;;;1009327;29;856;-21
2021/12/06 00:21:45;;;;;;;;;;;;;;;;;;1009394;29;910;-21
2021/12/06 00:22:21;;;;;;;;;;;;;;;;;;1015942;29;1346;-21
2021/12/06 00:22:52;;;;;;;;;;;;;;;;;;1016095;29;859;-21
2021/12/06 00:23:23;;;;;;;;;;;;;;;;;;1013389;29;1972;-21
2021/12/06 00:23:53;;;;;;;;;;;;;;;;;;1016874;29;843;-21
2021/12/06 00:24:24;;;;;;;;;;;;;;;;;;1017486;29;984;-21
2021/12/06 00:24:56;;;;;;;;;;;;;;;;;;1014296;29;897;-21
2021/12/06 00:25:26;;;;;;;;;;;;;;;;;;1013563;29;1089;-21
2021/12/06 00:25:56;;;;;;;;;;;;;;;;;;1013463;29;937;-21
2021/12/06 00:26:27;;;;;;;;;;;;;;;;;;1013360;29;949;-21
2021/12/06 00:26:57;;;;;;;;;;;;;;;;;;1013356;29;964;-22
2021/12/06 00:27:29;;;;;;;;;;;;;;;;;;1013490;29;1282;-20
2021/12/06 00:27:59;;;;;;;;;;;;;;;;;;1013284;29;895;-21
2021/12/06 00:28:30;;;;;;;;;;;;;;;;;;1013338;29;794;-21
2021/12/06 00:29:00;;;;;;;;;;;;;;;;;;1012807;29;1203;-21
2021/12/06 00:29:31;;;;;;;;;;;;;;;;;;1009102;29;1427;-21
2021/12/06 00:30:01;;;;;;;;;;;;;;;;;;1008967;29;1290;-21
2021/12/06 00:30:32;;;;;;;;;;;;;;;;;;1009057;29;929;-21
2021/12/06 00:31:03;;;;;;;;;;;;;;;;;;1009353;29;780;-20
2021/12/06 00:31:34;;;;;;;;;;;;;;;;;;1013313;29;922;-21
2021/12/06 00:32:05;;;;;;;;;;;;;;;;;;1013403;29;827;-20
2021/12/06 00:32:35;;;;;;;;;;;;;;;;;;1009144;29;1028;-21
2021/12/06 00:33:06;;;;;;;;;;;;;;;;;;1009188;29;858;-21
2021/12/06 00:33:36;;;;;;;;;;;;;;;;;;1009024;29;803;-21
2021/12/06 00:34:10;;;;;;;;;;;;;;;;;;1009106;29;1272;-21
2021/12/06 00:34:41;;;;;;;;;;;;;;;;;;1008998;29;903;-21
2021/12/06 00:35:17;;;;;;;;;;;;;;;;;;1008828;29;784;-21
2021/12/06 00:35:48;;;;;;;;;;;;;;;;;;1010699;29;1021;-21
2021/12/06 00:36:26;;;;;;;;;;;;;;;;;;1013368;29;1001;-22
2021/12/06 00:37:56;;;;;;;;;;;;;;;;;;1013366;29;823;-20
2021/12/06 00:38:26;;;;;;;;;;;;;;;;;;1013473;29;776;-21
2021/12/06 00:38:57;;;;;;;;;;;;;;;;;;1013182;29;946;-20
2021/12/06 00:39:27;;;;;;;;;;;;;;;;;;1008918;29;2297;-20
2021/12/06 00:39:59;;;;;;;;;;;;;;;;;;1009184;29;1436;-21
2021/12/06 00:40:41;;;;;;;;;;;;;;;;;;1008986;29;1020;-20
2021/12/06 00:41:12;;;;;;;;;;;;;;;;;;1008996;29;1013;-20
2021/12/06 00:41:42;;;;;;;;;;;;;;;;;;1010999;29;848;-21
2021/12/06 00:42:13;;;;;;;;;;;;;;;;;;1013349;29;975;-21
2021/12/06 00:42:44;;;;;;;;;;;;;;;;;;1009062;29;1575;-20
2021/12/06 00:43:14;;;;;;;;;;;;;;;;;;1009109;29;844;-20
2021/12/06 00:43:45;;;;;;;;;;;;;;;;;;1009131;29;1907;-21
2021/12/06 00:44:15;;;;;;;;;;;;;;;;;;1009004;29;848;-21
2021/12/06 00:44:46;;;;;;;;;;;;;;;;;;1014829;29;990;-21
2021/12/06 00:45:16;;;;;;;;;;;;;;;;;;1012566;29;1012;-21
2021/12/06 00:45:47;;;;;;;;;;;;;;;;;;1008958;29;1508;-21
2021/12/06 00:46:18;;;;;;;;;;;;;;;;;;1009231;29;869;-21
2021/12/06 00:46:48;;;;;;;;;;;;;;;;;;1009158;29;1206;-20
2021/12/06 00:47:19;;;;;;;;;;;;;;;;;;1009197;29;779;-21
2021/12/06 00:47:50;;;;;;;;;;;;;;;;;;1013033;29;1075;-21
2021/12/06 00:48:22;;;;;;;;;;;;;;;;;;1012974;29;840;-21
2021/12/06 00:48:52;;;;;;;;;;;;;;;;;;1013296;29;940;-20
2021/12/06 00:49:23;;;;;;;;;;;;;;;;;;1017102;29;998;-21
2021/12/06 00:49:53;;;;;;;;;;;;;;;;;;1017061;29;808;-22
2021/12/06 00:50:26;;;;;;;;;;;;;;;;;;1012970;29;1156;-21
2021/12/06 00:50:56;;;;;;;;;;;;;;;;;;1012881;29;925;-20
2021/12/06 00:51:26;;;;;;;;;;;;;;;;;;1013176;29;847;-21
2021/12/06 00:51:57;;;;;;;;;;;;;;;;;;1013264;29;851;-21
2021/12/06 00:52:27;;;;;;;;;;;;;;;;;;1017237;29;961;-21
2021/12/06 00:52:57;;;;;;;;;;;;;;;;;;1012921;29;1388;-20
2021/12/06 00:53:28;;;;;;;;;;;;;;;;;;1013026;29;889;-21
2021/12/06 00:53:58;;;;;;;;;;;;;;;;;;1008790;29;1573;-20
2021/12/06 00:54:31;;;;;;;;;;;;;;;;;;1009332;29;1211;-21
2021/12/06 00:55:02;;;;;;;;;;;;;;;;;;1012782;29;965;-21
2021/12/06 00:55:33;;;;;;;;;;;;;;;;;;1012802;29;879;-21
2021/12/06 00:56:04;;;;;;;;;;;;;;;;;;1013626;29;978;-20
2021/12/06 00:56:34;;;;;;;;;;;;;;;;;;1012829;29;1360;-21
2021/12/06 00:57:05;;;;;;;;;;;;;;;;;;1013065;29;928;-20
2021/12/06 00:57:36;;;;;;;;;;;;;;;;;;1005120;29;1243;-20
2021/12/06 00:58:07;;;;;;;;;;;;;;;;;;1005251;29;816;-20
2021/12/06 00:58:37;;;;;;;;;;;;;;;;;;1009337;29;946;-20
2021/12/06 00:59:08;;;;;;;;;;;;;;;;;;1008965;29;905;-21
2021/12/06 00:59:38;;;;;;;;;;;;;;;;;;1017304;29;874;-20
2021/12/06 01:00:11;;;;;;;;;;;;;;;;;;1012912;29;1195;-20
2021/12/06 01:00:43;;;;;;;;;;;;;;;;;;1012574;29;1238;-21
2021/12/06 01:01:14;;;;;;;;;;;;;;;;;;1012836;29;1246;-20
2021/12/06 01:01:45;;;;;;;;;;;;;;;;;;1009079;29;1174;-21
2021/12/06 01:02:15;;;;;;;;;;;;;;;;;;1004967;29;1152;-21
2021/12/06 01:02:46;;;;;;;;;;;;;;;;;;1005243;29;1587;-21
2021/12/06 01:03:19;;;;;;;;;;;;;;;;;;1005036;29;1044;-21
2021/12/06 01:03:50;;;;;;;;;;;;;;;;;;1005376;29;1966;-21
2021/12/06 01:04:20;;;;;;;;;;;;;;;;;;1009458;29;922;-21
2021/12/06 01:04:51;;;;;;;;;;;;;;;;;;1012656;29;1023;-21
2021/12/06 01:05:25;;;;;;;;;;;;;;;;;;1013217;29;922;-21
2021/12/06 01:05:55;;;;;;;;;;;;;;;;;;1017058;29;1017;-20
2021/12/06 01:06:26;;;;;;;;;;;;;;;;;;1017143;29;970;-21
2021/12/06 01:06:56;;;;;;;;;;;;;;;;;;1017230;29;1632;-22
2021/12/06 01:07:28;;;;;;;;;;;;;;;;;;1017320;29;834;-21
2021/12/06 01:07:58;;;;;;;;;;;;;;;;;;1017111;29;799;-21
2021/12/06 01:08:30;;;;;;;;;;;;;;;;;;1012789;29;1171;-21
2021/12/06 01:09:00;;;;;;;;;;;;;;;;;;1013167;29;838;-21
2021/12/06 01:09:31;;;;;;;;;;;;;;;;;;1013633;29;1226;-21
2021/12/06 01:10:02;;;;;;;;;;;;;;;;;;1013869;29;1060;-21
2021/12/06 01:10:34;;;;;;;;;;;;;;;;;;1013588;29;939;-21
2021/12/06 01:11:05;;;;;;;;;;;;;;;;;;1013961;29;1324;-21
2021/12/06 01:11:36;;;;;;;;;;;;;;;;;;1017690;29;951;-21
2021/12/06 01:12:07;;;;;;;;;;;;;;;;;;1013498;29;1415;-21
2021/12/06 01:12:38;;;;;;;;;;;;;;;;;;1013685;29;866;-21
2021/12/06 01:13:09;;;;;;;;;;;;;;;;;;1013682;29;881;-22
2021/12/06 01:13:39;;;;;;;;;;;;;;;;;;1014105;29;791;-21
2021/12/06 01:14:09;;;;;;;;;;;;;;;;;;1017927;29;921;-21
2021/12/06 01:14:40;;;;;;;;;;;;;;;;;;1017911;29;957;-21
2021/12/06 01:15:11;;;;;;;;;;;;;;;;;;1017524;29;844;-21
2021/12/06 01:15:42;;;;;;;;;;;;;;;;;;1013915;29;906;-21
2021/12/06 01:16:13;;;;;;;;;;;;;;;;;;1013371;29;910;-21
2021/12/06 01:16:43;;;;;;;;;;;;;;;;;;1013751;29;906;-21
2021/12/06 01:17:14;;;;;;;;;;;;;;;;;;1009867;29;1152;-21
2021/12/06 01:17:45;;;;;;;;;;;;;;;;;;1013622;29;1336;-21
2021/12/06 01:18:17;;;;;;;;;;;;;;;;;;1009743;29;1183;-21
2021/12/06 01:18:48;;;;;;;;;;;;;;;;;;1006357;29;1294;-21
2021/12/06 01:19:18;;;;;;;;;;;;;;;;;;1009372;29;950;-21
2021/12/06 01:19:48;;;;;;;;;;;;;;;;;;1006249;29;922;-21
2021/12/06 01:20:23;;;;;;;;;;;;;;;;;;1005825;29;1215;-21
2021/12/06 01:21:02;;;;;;;;;;;;;;;;;;1009636;29;1484;-21
2021/12/06 01:22:28;;;;;;;;;;;;;;;;;;1008789;29;1270;-21
2021/12/06 01:23:05;;;;;;;;;;;;;;;;;;1009922;29;1021;-21
2021/12/06 01:23:53;;;;;;;;;;;;;;;;;;1013485;29;1910;-21
2021/12/06 01:24:29;;;;;;;;;;;;;;;;;;1013073;29;1151;-21
2021/12/06 01:25:05;;;;;;;;;;;;;;;;;;1013555;29;884;-21
2021/12/06 01:25:52;;;;;;;;;;;;;;;;;;1013746;29;1124;-21
2021/12/06 01:28:20;;;;;;;;;;;;;;;;;;1005817;29;1421;-21
2021/12/06 01:31:34;;;;;;;;;;;;;;;;;;1013472;29;889;-21
2021/12/06 01:32:19;;;;;;;;;;;;;;;;;;1015040;29;1118;-21
2021/12/06 01:34:07;;;;;;;;;;;;;;;;;;1005240;29;1256;-21
2021/12/06 01:39:32;;;;;;;;;;;;;;;;;;1009698;29;1312;-21
2021/12/06 01:40:03;;;;;;;;;;;;;;;;;;1009758;29;1143;-20
2021/12/06 01:40:35;;;;;;;;;;;;;;;;;;1005672;29;1211;-21
2021/12/06 01:41:05;;;;;;;;;;;;;;;;;;1006126;29;981;-21
2021/12/06 01:41:37;;;;;;;;;;;;;;;;;;1009714;29;1080;-21
2021/12/06 01:42:08;;;;;;;;;;;;;;;;;;1009810;29;1132;-21
2021/12/06 01:42:39;;;;;;;;;;;;;;;;;;1013828;29;1358;-20
2021/12/06 01:43:09;;;;;;;;;;;;;;;;;;1013384;29;910;-21
2021/12/06 01:43:58;;;;;;;;;;;;;;;;;;1013804;29;1911;-21
2021/12/06 01:44:30;;;;;;;;;;;;;;;;;;1011200;29;671;-21
2021/12/06 01:45:10;;;;;;;;;;;;;;;;;;1001902;29;1227;-21
2021/12/06 01:45:42;;;;;;;;;;;;;;;;;;1002035;29;1307;-21
2021/12/06 01:46:14;;;;;;;;;;;;;;;;;;999531;29;1430;-20
2021/12/06 01:46:52;;;;;;;;;;;;;;;;;;998636;29;1467;-21
2021/12/06 01:47:27;;;;;;;;;;;;;;;;;;1001998;29;1239;-21
2021/12/06 01:47:57;;;;;;;;;;;;;;;;;;1003508;29;761;-21
2021/12/06 01:48:28;;;;;;;;;;;;;;;;;;1007556;29;1008;-21
2021/12/06 01:48:59;;;;;;;;;;;;;;;;;;1006587;29;1522;-21
2021/12/06 01:49:33;;;;;;;;;;;;;;;;;;1009594;29;1485;-21
2021/12/06 01:50:07;;;;;;;;;;;;;;;;;;1009770;29;1332;-24
2021/12/06 01:50:41;;;;;;;;;;;;;;;;;;1005796;29;1219;-20
2021/12/06 01:51:11;;;;;;;;;;;;;;;;;;1006887;29;1262;-20
2021/12/06 01:51:43;;;;;;;;;;;;;;;;;;1005673;29;1339;-21
2021/12/06 01:52:15;;;;;;;;;;;;;;;;;;1005813;29;1012;-21
2021/12/06 01:52:47;;;;;;;;;;;;;;;;;;1009760;29;871;-20
2021/12/06 01:53:17;;;;;;;;;;;;;;;;;;1010201;29;1016;-21
2021/12/06 01:53:48;;;;;;;;;;;;;;;;;;1013504;29;1199;-21
2021/12/06 01:54:19;;;;;;;;;;;;;;;;;;1013699;29;801;-21
2021/12/06 01:54:51;;;;;;;;;;;;;;;;;;1005126;29;994;-21
2021/12/06 01:55:23;;;;;;;;;;;;;;;;;;1001921;29;923;-20
2021/12/06 01:55:54;;;;;;;;;;;;;;;;;;1005509;29;950;-21
2021/12/06 01:56:25;;;;;;;;;;;;;;;;;;1005661;29;1176;-21
2021/12/06 01:56:56;;;;;;;;;;;;;;;;;;1009497;29;1171;-21
2021/12/06 01:57:27;;;;;;;;;;;;;;;;;;1005873;29;1144;-21
2021/12/06 01:57:58;;;;;;;;;;;;;;;;;;1006084;29;1036;-20
2021/12/06 01:58:29;;;;;;;;;;;;;;;;;;1005306;29;1176;-21
2021/12/06 01:59:00;;;;;;;;;;;;;;;;;;1001956;29;917;-21
2021/12/06 01:59:32;;;;;;;;;;;;;;;;;;998474;29;1279;-21
2021/12/06 02:00:08;;;;;;;;;;;;;;;;;;998361;29;1455;-21
2021/12/06 02:00:48;;;;;;;;;;;;;;;;;;1003957;29;678;-20
2021/12/06 02:01:24;;;;;;;;;;;;;;;;;;1005623;29;1290;-21
2021/12/06 02:01:55;;;;;;;;;;;;;;;;;;1004201;29;1255;-20
2021/12/06 02:02:27;;;;;;;;;;;;;;;;;;1001797;29;1192;-21
2021/12/06 02:02:59;;;;;;;;;;;;;;;;;;998293;29;1298;-20
2021/12/06 02:03:35;;;;;;;;;;;;;;;;;;1001658;29;1919;-21
2021/12/06 02:04:05;;;;;;;;;;;;;;;;;;1003023;29;791;-21
2021/12/06 02:04:37;;;;;;;;;;;;;;;;;;1006817;29;854;-21
2021/12/06 02:05:08;;;;;;;;;;;;;;;;;;1009646;29;1274;-20
2021/12/06 02:05:40;;;;;;;;;;;;;;;;;;1013764;29;866;-21
2021/12/06 02:06:13;;;;;;;;;;;;;;;;;;1009721;29;1243;-21
2021/12/06 02:06:43;;;;;;;;;;;;;;;;;;1009185;29;883;-20
2021/12/06 02:07:17;;;;;;;;;;;;;;;;;;1009593;29;1178;-21
2021/12/06 02:07:50;;;;;;;;;;;;;;;;;;1005652;29;1132;-21
2021/12/06 02:08:22;;;;;;;;;;;;;;;;;;1002677;29;1354;-20
2021/12/06 02:08:52;;;;;;;;;;;;;;;;;;1002880;29;1139;-21
2021/12/06 02:09:26;;;;;;;;;;;;;;;;;;997982;29;2318;-21
2021/12/06 02:09:59;;;;;;;;;;;;;;;;;;1002657;29;933;-20
2021/12/06 02:10:34;;;;;;;;;;;;;;;;;;1003423;29;1367;-21
2021/12/06 02:11:09;;;;;;;;;;;;;;;;;;1003657;29;1494;-20
2021/12/06 02:11:42;;;;;;;;;;;;;;;;;;1001330;29;1427;-21
2021/12/06 02:12:14;;;;;;;;;;;;;;;;;;1003178;29;1653;-21
2021/12/06 02:12:48;;;;;;;;;;;;;;;;;;1006432;29;1163;-20
2021/12/06 02:13:18;;;;;;;;;;;;;;;;;;1009938;29;1109;-20
2021/12/06 02:14:01;;;;;;;;;;;;;;;;;;1009561;29;1334;-21
2021/12/06 02:14:43;;;;;;;;;;;;;;;;;;1005721;29;1224;-20
2021/12/06 02:15:33;;;;;;;;;;;;;;;;;;1005838;29;1310;-21
2021/12/06 02:16:04;;;;;;;;;;;;;;;;;;1005891;29;1195;-21
2021/12/06 02:16:55;;;;;;;;;;;;;;;;;;1005469;29;1168;-21
2021/12/06 02:17:32;;;;;;;;;;;;;;;;;;1005627;29;994;-20
2021/12/06 02:18:09;;;;;;;;;;;;;;;;;;1005393;29;1080;-21
2021/12/06 02:18:45;;;;;;;;;;;;;;;;;;1005818;29;2044;-21
2021/12/06 02:19:19;;;;;;;;;;;;;;;;;;1005661;29;1370;-21
2021/12/06 02:19:51;;;;;;;;;;;;;;;;;;1007201;29;1298;-21
2021/12/06 02:20:28;;;;;;;;;;;;;;;;;;1010779;29;1256;-22
2021/12/06 02:21:08;;;;;;;;;;;;;;;;;;1012015;29;1253;-21
2021/12/06 02:21:41;;;;;;;;;;;;;;;;;;1005437;29;1202;-20
2021/12/06 02:22:15;;;;;;;;;;;;;;;;;;1005751;29;1262;-21
2021/12/06 02:22:46;;;;;;;;;;;;;;;;;;1007765;29;882;-21
2021/12/06 02:23:18;;;;;;;;;;;;;;;;;;1010621;29;1076;-20
2021/12/06 02:23:48;;;;;;;;;;;;;;;;;;1013252;29;1907;-20
2021/12/06 02:24:19;;;;;;;;;;;;;;;;;;1014008;29;1072;-20
2021/12/06 02:24:52;;;;;;;;;;;;;;;;;;1009375;29;1477;-21
2021/12/06 02:25:23;;;;;;;;;;;;;;;;;;1009376;29;1319;-21
2021/12/06 02:25:54;;;;;;;;;;;;;;;;;;1009713;29;1305;-21
2021/12/06 02:26:25;;;;;;;;;;;;;;;;;;1005106;29;1925;-20
2021/12/06 02:26:56;;;;;;;;;;;;;;;;;;1005863;29;936;-20
2021/12/06 02:27:29;;;;;;;;;;;;;;;;;;1005640;29;1318;-21
2021/12/06 02:27:59;;;;;;;;;;;;;;;;;;1005907;29;1095;-20
2021/12/06 02:28:32;;;;;;;;;;;;;;;;;;1009788;29;1436;-21
2021/12/06 02:29:04;;;;;;;;;;;;;;;;;;1005976;29;1332;-21
2021/12/06 02:29:35;;;;;;;;;;;;;;;;;;1009611;29;816;-20
2021/12/06 02:30:07;;;;;;;;;;;;;;;;;;1005641;29;1809;-20
2021/12/06 02:30:37;;;;;;;;;;;;;;;;;;1006136;29;1182;-20
2021/12/06 02:31:08;;;;;;;;;;;;;;;;;;1009628;29;784;-21
2021/12/06 02:31:39;;;;;;;;;;;;;;;;;;1005869;29;1389;-21
2021/12/06 02:32:11;;;;;;;;;;;;;;;;;;1009277;29;898;-21
2021/12/06 02:32:42;;;;;;;;;;;;;;;;;;1009398;29;1444;-21
2021/12/06 02:33:13;;;;;;;;;;;;;;;;;;1009684;29;856;-21
2021/12/06 02:33:45;;;;;;;;;;;;;;;;;;1009195;29;1235;-20
2021/12/06 02:34:16;;;;;;;;;;;;;;;;;;1009873;29;760;-21
2021/12/06 02:34:48;;;;;;;;;;;;;;;;;;1009080;29;1171;-20
2021/12/06 02:35:21;;;;;;;;;;;;;;;;;;1009589;29;986;-20
2021/12/06 02:35:53;;;;;;;;;;;;;;;;;;1013103;29;1202;-21
2021/12/06 02:36:24;;;;;;;;;;;;;;;;;;1013026;29;1290;-21
2021/12/06 02:36:54;;;;;;;;;;;;;;;;;;1009241;29;1421;-21
2021/12/06 02:37:28;;;;;;;;;;;;;;;;;;1005607;29;1334;-20
2021/12/06 02:38:02;;;;;;;;;;;;;;;;;;1009545;29;1294;-20
2021/12/06 02:38:33;;;;;;;;;;;;;;;;;;1005402;29;1332;-21
2021/12/06 02:39:04;;;;;;;;;;;;;;;;;;1006485;29;1040;-21
2021/12/06 02:39:36;;;;;;;;;;;;;;;;;;1005704;29;1127;-21
2021/12/06 02:40:09;;;;;;;;;;;;;;;;;;1005727;29;1208;-21
2021/12/06 02:40:40;;;;;;;;;;;;;;;;;;1005669;29;1329;-20
2021/12/06 02:41:13;;;;;;;;;;;;;;;;;;1005924;29;1350;-20
2021/12/06 02:41:44;;;;;;;;;;;;;;;;;;1009186;29;1015;-21
2021/12/06 02:42:15;;;;;;;;;;;;;;;;;;1010088;29;1160;-21
2021/12/06 02:42:47;;;;;;;;;;;;;;;;;;1009099;29;1216;-20
2021/12/06 02:43:18;;;;;;;;;;;;;;;;;;1009601;29;1188;-20
2021/12/06 02:43:49;;;;;;;;;;;;;;;;;;1005552;29;1938;-20
2021/12/06 02:44:20;;;;;;;;;;;;;;;;;;1002006;29;1119;-20
2021/12/06 02:44:51;;;;;;;;;;;;;;;;;;1005724;29;883;-21
2021/12/06 02:45:24;;;;;;;;;;;;;;;;;;1002024;29;1718;-20
2021/12/06 02:45:55;;;;;;;;;;;;;;;;;;1005992;29;820;-21
2021/12/06 02:46:25;;;;;;;;;;;;;;;;;;1005694;29;1129;-21
2021/12/06 02:46:56;;;;;;;;;;;;;;;;;;1001902;29;1184;-21
2021/12/06 02:47:28;;;;;;;;;;;;;;;;;;1001748;29;1334;-21
2021/12/06 02:48:00;;;;;;;;;;;;;;;;;;1001999;29;907;-21
2021/12/06 02:48:35;;;;;;;;;;;;;;;;;;1006516;29;1016;-21
2021/12/06 02:49:06;;;;;;;;;;;;;;;;;;1006169;29;1313;-21
2021/12/06 02:49:36;;;;;;;;;;;;;;;;;;1005646;29;1276;-21
2021/12/06 02:50:09;;;;;;;;;;;;;;;;;;1001576;29;2158;-20
2021/12/06 02:50:42;;;;;;;;;;;;;;;;;;1001689;29;1182;-21
2021/12/06 02:51:14;;;;;;;;;;;;;;;;;;998705;29;1431;-21
2021/12/06 02:51:45;;;;;;;;;;;;;;;;;;1002227;29;1277;-21
2021/12/06 02:52:15;;;;;;;;;;;;;;;;;;1006403;29;959;-21
2021/12/06 02:52:45;;;;;;;;;;;;;;;;;;1005618;29;1211;-21
2021/12/06 02:53:18;;;;;;;;;;;;;;;;;;1009275;29;1363;-20
2021/12/06 02:53:49;;;;;;;;;;;;;;;;;;1009464;29;816;-21
2021/12/06 02:54:22;;;;;;;;;;;;;;;;;;1010034;29;841;-20
2021/12/06 02:54:56;;;;;;;;;;;;;;;;;;1009347;29;1250;-21
2021/12/06 02:55:35;;;;;;;;;;;;;;;;;;1009275;29;975;-21
2021/12/06 02:56:17;;;;;;;;;;;;;;;;;;1005487;29;1266;-20
2021/12/06 02:57:32;;;;;;;;;;;;;;;;;;1009131;29;871;-21
2021/12/06 02:58:15;;;;;;;;;;;;;;;;;;1005380;29;1289;-21
2021/12/06 02:58:56;;;;;;;;;;;;;;;;;;1008853;29;1183;-20
2021/12/06 02:59:27;;;;;;;;;;;;;;;;;;1005615;29;1266;-20
2021/12/06 02:59:58;;;;;;;;;;;;;;;;;;1001471;29;902;-20
2021/12/06 03:00:28;;;;;;;;;;;;;;;;;;1003109;29;1004;-21
2021/12/06 03:00:59;;;;;;;;;;;;;;;;;;1001725;29;1259;-21
2021/12/06 03:01:32;;;;;;;;;;;;;;;;;;1005198;29;1306;-20
2021/12/06 03:02:04;;;;;;;;;;;;;;;;;;1005264;29;1325;-21
2021/12/06 03:02:35;;;;;;;;;;;;;;;;;;1009340;29;1250;-20
2021/12/06 03:03:07;;;;;;;;;;;;;;;;;;1008332;29;949;-21
2021/12/06 03:03:38;;;;;;;;;;;;;;;;;;1006324;29;1911;-20
2021/12/06 03:04:09;;;;;;;;;;;;;;;;;;1006039;29;1514;-21
2021/12/06 03:04:40;;;;;;;;;;;;;;;;;;1009448;29;927;-21
2021/12/06 03:05:11;;;;;;;;;;;;;;;;;;1005577;29;1496;-20
2021/12/06 03:05:43;;;;;;;;;;;;;;;;;;1001908;29;1082;-20
2021/12/06 03:06:14;;;;;;;;;;;;;;;;;;1001672;29;1125;-20
2021/12/06 03:06:47;;;;;;;;;;;;;;;;;;1001962;29;1187;-21
2021/12/06 03:07:21;;;;;;;;;;;;;;;;;;1005259;29;906;-20
2021/12/06 03:07:57;;;;;;;;;;;;;;;;;;1006377;29;844;-21
2021/12/06 03:08:39;;;;;;;;;;;;;;;;;;1011103;29;925;-21
2021/12/06 03:09:11;;;;;;;;;;;;;;;;;;1009255;29;1254;-20
2021/12/06 03:09:42;;;;;;;;;;;;;;;;;;1009293;29;1270;-20
2021/12/06 03:10:13;;;;;;;;;;;;;;;;;;1012893;29;1148;-20
2021/12/06 03:10:44;;;;;;;;;;;;;;;;;;1009178;29;1016;-21
2021/12/06 03:11:26;;;;;;;;;;;;;;;;;;1009420;29;898;-21
2021/12/06 03:12:01;;;;;;;;;;;;;;;;;;1005271;29;1238;-20
2021/12/06 03:12:31;;;;;;;;;;;;;;;;;;1003889;29;1041;-20
2021/12/06 03:13:02;;;;;;;;;;;;;;;;;;1005268;29;1466;-21
2021/12/06 03:13:33;;;;;;;;;;;;;;;;;;1005570;29;1278;-20
2021/12/06 03:14:04;;;;;;;;;;;;;;;;;;1001908;29;1179;-21
2021/12/06 03:14:37;;;;;;;;;;;;;;;;;;1005346;29;1238;-20
2021/12/06 03:15:12;;;;;;;;;;;;;;;;;;1005431;29;1341;-21
2021/12/06 03:15:42;;;;;;;;;;;;;;;;;;1002681;29;1519;-21
2021/12/06 03:16:13;;;;;;;;;;;;;;;;;;1006099;29;923;-21
2021/12/06 03:16:44;;;;;;;;;;;;;;;;;;1009326;29;1159;-20
2021/12/06 03:17:16;;;;;;;;;;;;;;;;;;1001216;29;1204;-20
2021/12/06 03:17:47;;;;;;;;;;;;;;;;;;1001165;29;1299;-20
2021/12/06 03:18:18;;;;;;;;;;;;;;;;;;1001476;29;1126;-21
2021/12/06 03:18:50;;;;;;;;;;;;;;;;;;1005111;29;1337;-20
2021/12/06 03:19:21;;;;;;;;;;;;;;;;;;1001782;29;1531;-21
2021/12/06 03:19:52;;;;;;;;;;;;;;;;;;1001662;29;1306;-21
2021/12/06 03:20:22;;;;;;;;;;;;;;;;;;1001767;29;1542;-21
2021/12/06 03:20:53;;;;;;;;;;;;;;;;;;1001714;29;1169;-21
2021/12/06 03:21:24;;;;;;;;;;;;;;;;;;1005361;29;924;-21
2021/12/06 03:21:56;;;;;;;;;;;;;;;;;;1001836;29;1259;-21
2021/12/06 03:22:27;;;;;;;;;;;;;;;;;;1005720;29;1105;-21
2021/12/06 03:22:58;;;;;;;;;;;;;;;;;;1009224;29;1373;-21
2021/12/06 03:23:30;;;;;;;;;;;;;;;;;;1009646;29;1911;-20
2021/12/06 03:24:00;;;;;;;;;;;;;;;;;;1012797;29;1089;-21
2021/12/06 03:24:31;;;;;;;;;;;;;;;;;;1005753;29;1706;-21
2021/12/06 03:25:05;;;;;;;;;;;;;;;;;;1005201;29;1266;-21
2021/12/06 03:25:35;;;;;;;;;;;;;;;;;;1005579;29;1290;-21
2021/12/06 03:26:06;;;;;;;;;;;;;;;;;;1005674;29;1179;-21
2021/12/06 03:26:37;;;;;;;;;;;;;;;;;;1005995;29;1421;-21
2021/12/06 03:27:08;;;;;;;;;;;;;;;;;;1008805;29;1243;-20
2021/12/06 03:27:40;;;;;;;;;;;;;;;;;;1005281;29;1238;-20
2021/12/06 03:28:11;;;;;;;;;;;;;;;;;;1005614;29;1187;-21
2021/12/06 03:28:43;;;;;;;;;;;;;;;;;;1004845;29;1262;-21
2021/12/06 03:29:14;;;;;;;;;;;;;;;;;;1005011;29;1290;-20
2021/12/06 03:29:46;;;;;;;;;;;;;;;;;;1004768;29;1159;-20
2021/12/06 03:30:16;;;;;;;;;;;;;;;;;;1005646;29;1316;-21
2021/12/06 03:30:47;;;;;;;;;;;;;;;;;;1008900;29;931;-20
2021/12/06 03:31:18;;;;;;;;;;;;;;;;;;1001832;29;1431;-20
2021/12/06 03:31:49;;;;;;;;;;;;;;;;;;1005087;29;949;-20
2021/12/06 03:32:21;;;;;;;;;;;;;;;;;;1008844;29;1235;-20
2021/12/06 03:32:52;;;;;;;;;;;;;;;;;;1009690;29;1059;-20
2021/12/06 03:33:22;;;;;;;;;;;;;;;;;;1005046;29;1316;-21
2021/12/06 03:33:55;;;;;;;;;;;;;;;;;;1005872;29;1321;-20
2021/12/06 03:34:26;;;;;;;;;;;;;;;;;;1005467;29;1300;-21
2021/12/06 03:34:58;;;;;;;;;;;;;;;;;;1001776;29;882;-20
2021/12/06 03:35:28;;;;;;;;;;;;;;;;;;1001144;29;1147;-21
2021/12/06 03:35:59;;;;;;;;;;;;;;;;;;1001647;29;1289;-20
2021/12/06 03:36:31;;;;;;;;;;;;;;;;;;1000989;29;1447;-21
2021/12/06 03:37:03;;;;;;;;;;;;;;;;;;1005541;29;1455;-21
2021/12/06 03:37:36;;;;;;;;;;;;;;;;;;1009178;29;1327;-20
2021/12/06 03:38:06;;;;;;;;;;;;;;;;;;1005328;29;1184;-20
2021/12/06 03:38:38;;;;;;;;;;;;;;;;;;1006162;29;1208;-20
2021/12/06 03:39:20;;;;;;;;;;;;;;;;;;1009059;29;1316;-20
2021/12/06 03:39:51;;;;;;;;;;;;;;;;;;1006842;29;1168;-20
2021/12/06 03:40:27;;;;;;;;;;;;;;;;;;1005416;29;856;-20
2021/12/06 03:40:58;;;;;;;;;;;;;;;;;;1001719;29;1371;-20
2021/12/06 03:41:29;;;;;;;;;;;;;;;;;;1001810;29;1652;-20
2021/12/06 03:42:01;;;;;;;;;;;;;;;;;;1005734;29;1283;-20
2021/12/06 03:42:32;;;;;;;;;;;;;;;;;;1005681;29;1199;-20
2021/12/06 03:43:02;;;;;;;;;;;;;;;;;;1005345;29;1285;-20
2021/12/06 03:43:35;;;;;;;;;;;;;;;;;;1001504;29;1968;-21
2021/12/06 03:44:05;;;;;;;;;;;;;;;;;;1001754;29;1435;-20
2021/12/06 03:44:37;;;;;;;;;;;;;;;;;;1002120;29;1193;-20
2021/12/06 03:45:10;;;;;;;;;;;;;;;;;;1002165;29;1262;-21
2021/12/06 03:45:41;;;;;;;;;;;;;;;;;;1001230;29;1253;-21
2021/12/06 03:46:15;;;;;;;;;;;;;;;;;;1002959;29;827;-21
2021/12/06 03:46:46;;;;;;;;;;;;;;;;;;1005313;29;1194;-20
2021/12/06 03:47:22;;;;;;;;;;;;;;;;;;1005811;29;1159;-20
2021/12/06 03:47:52;;;;;;;;;;;;;;;;;;1005213;29;1207;-21
2021/12/06 03:48:24;;;;;;;;;;;;;;;;;;1002536;29;1223;-21
2021/12/06 03:48:54;;;;;;;;;;;;;;;;;;1005400;29;1041;-20
2021/12/06 03:49:24;;;;;;;;;;;;;;;;;;1004844;29;1323;-21
2021/12/06 03:49:55;;;;;;;;;;;;;;;;;;1001095;29;1161;-20
2021/12/06 03:50:26;;;;;;;;;;;;;;;;;;1004897;29;1429;-20
2021/12/06 03:50:56;;;;;;;;;;;;;;;;;;1004966;29;1075;-21
2021/12/06 03:51:28;;;;;;;;;;;;;;;;;;1001176;29;1645;-20
2021/12/06 03:51:59;;;;;;;;;;;;;;;;;;1001572;29;1321;-20
2021/12/06 03:52:30;;;;;;;;;;;;;;;;;;1005120;29;1262;-21
2021/12/06 03:53:02;;;;;;;;;;;;;;;;;;1005733;29;1103;-21
2021/12/06 03:53:32;;;;;;;;;;;;;;;;;;1006189;29;1472;-21
2021/12/06 03:54:03;;;;;;;;;;;;;;;;;;1012955;29;1175;-20
2021/12/06 03:54:34;;;;;;;;;;;;;;;;;;1012806;29;1241;-21
2021/12/06 03:55:07;;;;;;;;;;;;;;;;;;1013157;29;1188;-21
2021/12/06 03:55:38;;;;;;;;;;;;;;;;;;1009444;29;1526;-20
2021/12/06 03:56:09;;;;;;;;;;;;;;;;;;1004102;29;1048;-20
2021/12/06 03:56:40;;;;;;;;;;;;;;;;;;1001218;29;1219;-20
2021/12/06 03:57:11;;;;;;;;;;;;;;;;;;1004932;29;2158;-20
2021/12/06 03:57:41;;;;;;;;;;;;;;;;;;1008835;29;828;-20
2021/12/06 03:58:15;;;;;;;;;;;;;;;;;;1009705;29;1136;-20
2021/12/06 03:58:47;;;;;;;;;;;;;;;;;;1008564;29;1279;-20
2021/12/06 03:59:17;;;;;;;;;;;;;;;;;;1009009;29;1372;-20
2021/12/06 03:59:48;;;;;;;;;;;;;;;;;;1009074;29;1274;-20